Observation data for Tulia on 07/05/2020      Previous  Date  Next       Current Mesonet Observations  Soil Data  Daily Summary Page  Observations in Plain Language
KTIS 050500Z 06006KT 22/17 A3004 RMK A01 T02160173  RH  081%=      5-min Rain = 0
KTIS 050505Z 06006KT 22/17 A3004 RMK A01 T02170173  RH  080%=      5-min Rain = 0
KTIS 050510Z 06005KT 22/17 A3004 RMK A01 T02170173  RH  080%=      5-min Rain = 0
KTIS 050515Z 06005KT 22/17 A3004 RMK A01 T02190174  RH  080%=      5-min Rain = 0
KTIS 050520Z 07004KT 22/17 A3004 RMK A01 T02200173  RH  079%=      5-min Rain = 0
KTIS 050525Z 07005KT 22/17 A3004 RMK A01 T02200173  RH  078%=      5-min Rain = 0
KTIS 050530Z 08004KT 22/17 A3005 RMK A01 T02220173  RH  078%=      5-min Rain = 0
KTIS 050535Z 08003KT 22/17 A3005 RMK A01 T02220172  RH  077%=      5-min Rain = 0
KTIS 050540Z 07003KT 22/17 A3005 RMK A01 T02230172  RH  077%=      5-min Rain = 0
KTIS 050545Z 06004KT 22/17 A3005 RMK A01 T02220173  RH  077%=      5-min Rain = 0
KTIS 050550Z 30012G25KT 22/17 A3008 RMK A01 T02220172  RH  077%=      5-min Rain = 0
KTIS 050555Z 30019G26KT 23/17 A301 RMK A01 T02310172  RH  073%=      5-min Rain = 0
KTIS 050600Z 33014G26KT 24/17 A3011 RMK A01 T02410169  RH  067%=      5-min Rain = 0
KTIS 050605Z 28014G19KT 25/16 A3011 RMK A01 T02510161  RH  060%=      5-min Rain = 0
KTIS 050610Z 30014G19KT 25/17 A3012 RMK A01 T02490165  RH  063%=      5-min Rain = 0
KTIS 050615Z 30021G27KT 23/17 A3012 RMK A01 T02340171  RH  071%=      5-min Rain = 0
KTIS 050620Z 30021G27KT 22/17 A3012 RMK A01 T02220168  RH  075%=      5-min Rain = 0
KTIS 050625Z 30022G28KT 21/17 A3013 RMK A01 T02140168  RH  079%=      5-min Rain = 0
KTIS 050630Z 30021G26KT 21/17 A3014 RMK A01 T02060173  RH  086%=      5-min Rain = 0
KTIS 050635Z 31019G24KT 20/18 A3014 RMK A01 T02010175  RH  089%=      5-min Rain = 0.01
KTIS 050640Z 31017KT 20/17 A3014 RMK A01 T01980173  RH  090%=      5-min Rain = 0.01
KTIS 050645Z 31014KT 20/17 A3015 RMK A01 T01960170  RH  090%=      5-min Rain = 0.01
KTIS 050650Z 31015KT 19/17 A3015 RMK A01 T01940167  RH  089%=      5-min Rain = 0.07
KTIS 050655Z 32014KT 19/17 A3014 RMK A01 T01920165  RH  089%=      5-min Rain = 0.08
KTIS 050700Z 31013KT 19/16 A3014 RMK A01 T01900164  RH  089%=      5-min Rain = 0.06
KTIS 050705Z 31012KT 19/16 A3014 RMK A01 T01890163  RH  089%=      5-min Rain = 0.03
KTIS 050710Z 29010KT 19/17 A3014 RMK A01 T01890165  RH  090%=      5-min Rain = 0.01
KTIS 050715Z 29012KT 19/17 A3014 RMK A01 T01880165  RH  091%=      5-min Rain = 0.01
KTIS 050720Z 29010KT 19/17 A3014 RMK A01 T01890166  RH  091%=      5-min Rain = 0.02
KTIS 050725Z 31008KT 19/17 A3013 RMK A01 T01880167  RH  092%=      5-min Rain = 0.02
KTIS 050730Z 30005KT 19/17 A3013 RMK A01 T01890169  RH  092%=      5-min Rain = 0.01
KTIS 050735Z 01005KT 19/17 A3013 RMK A01 T01890170  RH  093%=      5-min Rain = 0.01
KTIS 050740Z 05008KT 19/17 A3012 RMK A01 T01890170  RH  093%=      5-min Rain = 0.02
KTIS 050745Z 05008KT 19/17 A3012 RMK A01 T01880169  RH  094%=      5-min Rain = 0.02
KTIS 050750Z 07006KT 19/17 A3012 RMK A01 T01890171  RH  094%=      5-min Rain = 0.02
KTIS 050755Z 11007KT 19/17 A3012 RMK A01 T01910174  RH  095%=      5-min Rain = 0.01
KTIS 050800Z 18006KT 19/17 A3013 RMK A01 T01910174  RH  095%=      5-min Rain = 0.01
KTIS 050805Z 21008KT 19/17 A3013 RMK A01 T01900171  RH  093%=      5-min Rain = 0.01
KTIS 050810Z 22007KT 19/17 A3013 RMK A01 T01910170  RH  092%=      5-min Rain = 0.01
KTIS 050815Z 21007KT 19/17 A3012 RMK A01 T01900169  RH  092%=      5-min Rain = 0.01
KTIS 050820Z 21007KT 19/17 A3012 RMK A01 T01890167  RH  092%=      5-min Rain = 0
KTIS 050825Z 20009KT 19/17 A3011 RMK A01 T01890166  RH  091%=      5-min Rain = 0.01
KTIS 050830Z 22008KT 19/17 A3011 RMK A01 T01900165  RH  090%=      5-min Rain = 0
KTIS 050835Z 22006KT 19/17 A3011 RMK A01 T01900165  RH  089%=      5-min Rain = 0
KTIS 050840Z 21006KT 19/17 A301 RMK A01 T01900165  RH  089%=      5-min Rain = 0
KTIS 050845Z 21005KT 19/17 A301 RMK A01 T01910165  RH  089%=      5-min Rain = 0
KTIS 050850Z 21005KT 19/17 A301 RMK A01 T01910165  RH  089%=      5-min Rain = 0
KTIS 050855Z 22006KT 19/17 A301 RMK A01 T01910166  RH  090%=      5-min Rain = 0
KTIS 050900Z 21006KT 19/17 A301 RMK A01 T01910167  RH  090%=      5-min Rain = 0
KTIS 050905Z 19005KT 19/17 A3009 RMK A01 T01910167  RH  090%=      5-min Rain = 0
KTIS 050910Z 19005KT 19/17 A301 RMK A01 T01920166  RH  090%=      5-min Rain = 0
KTIS 050915Z 13003KT 19/17 A301 RMK A01 T01920167  RH  090%=      5-min Rain = 0
KTIS 050920Z 06006KT 19/17 A301 RMK A01 T01930169  RH  090%=      5-min Rain = 0
KTIS 050925Z 07007KT 19/17 A301 RMK A01 T01920169  RH  091%=      5-min Rain = 0
KTIS 050930Z 07008KT 19/17 A3009 RMK A01 T01910169  RH  091%=      5-min Rain = 0
KTIS 050935Z 08006KT 19/17 A3008 RMK A01 T01910168  RH  091%=      5-min Rain = 0
KTIS 050940Z 08003KT 19/17 A3008 RMK A01 T01910168  RH  091%=      5-min Rain = 0
KTIS 050945Z 06005KT 19/17 A3008 RMK A01 T01910168  RH  091%=      5-min Rain = 0
KTIS 050950Z 03002KT 19/17 A3008 RMK A01 T01900168  RH  091%=      5-min Rain = 0
KTIS 050955Z 04003KT 19/17 A3007 RMK A01 T01900168  RH  091%=      5-min Rain = 0
KTIS 051000Z 03002KT 19/17 A3007 RMK A01 T01910168  RH  091%=      5-min Rain = 0
KTIS 051005Z 04001KT 19/17 A3007 RMK A01 T01910168  RH  091%=      5-min Rain = 0
KTIS 051010Z 05001KT 19/17 A3006 RMK A01 T01900168  RH  091%=      5-min Rain = 0
KTIS 051015Z 05001KT 19/17 A3006 RMK A01 T01910167  RH  091%=      5-min Rain = 0
KTIS 051020Z 00000KT 19/17 A3006 RMK A01 T01910167  RH  090%=      5-min Rain = 0
KTIS 051025Z 00000KT 19/17 A3006 RMK A01 T01910167  RH  090%=      5-min Rain = 0
KTIS 051030Z 26001KT 19/17 A3005 RMK A01 T01910168  RH  090%=      5-min Rain = 0
KTIS 051035Z 26003KT 19/17 A3005 RMK A01 T01930170  RH  091%=      5-min Rain = 0
KTIS 051040Z 31002KT 19/17 A3004 RMK A01 T01920169  RH  091%=      5-min Rain = 0
KTIS 051045Z 32004KT 19/17 A3004 RMK A01 T01920171  RH  092%=      5-min Rain = 0
KTIS 051050Z 32004KT 19/17 A3003 RMK A01 T01920171  RH  092%=      5-min Rain = 0
KTIS 051055Z 33004KT 19/17 A3003 RMK A01 T01910171  RH  093%=      5-min Rain = 0
KTIS 051100Z 32004KT 19/17 A3002 RMK A01 T01910171  RH  093%=      5-min Rain = 0
KTIS 051105Z 32004KT 19/17 A3002 RMK A01 T01900170  RH  093%=      5-min Rain = 0
KTIS 051110Z 32005KT 19/17 A3002 RMK A01 T01890171  RH  093%=      5-min Rain = 0
KTIS 051115Z 32005KT 19/17 A3002 RMK A01 T01890170  RH  094%=      5-min Rain = 0
KTIS 051120Z 33005KT 19/17 A3002 RMK A01 T01880170  RH  094%=      5-min Rain = 0
KTIS 051125Z 33005KT 19/17 A3002 RMK A01 T01870169  RH  094%=      5-min Rain = 0
KTIS 051130Z 34007KT 19/17 A3002 RMK A01 T01870169  RH  094%=      5-min Rain = 0
KTIS 051135Z 34007KT 19/17 A3002 RMK A01 T01870170  RH  094%=      5-min Rain = 0
KTIS 051140Z 33007KT 19/17 A3002 RMK A01 T01870170  RH  094%=      5-min Rain = 0
KTIS 051145Z 34008KT 19/17 A3002 RMK A01 T01860169  RH  095%=      5-min Rain = 0
KTIS 051150Z 34007KT 19/17 A3002 RMK A01 T01850169  RH  095%=      5-min Rain = 0
KTIS 051155Z 35007KT 19/17 A3002 RMK A01 T01850169  RH  095%=      5-min Rain = 0
KTIS 051200Z 34006KT 19/17 A3002 RMK A01 T01860170  RH  095%=      5-min Rain = 0
KTIS 051205Z 34006KT 19/17 A3002 RMK A01 T01860169  RH  095%=      5-min Rain = 0
KTIS 051210Z 34007KT 19/17 A3002 RMK A01 T01860169  RH  095%=      5-min Rain = 0
KTIS 051215Z 36008KT 19/17 A3002 RMK A01 T01860169  RH  095%=      5-min Rain = 0
KTIS 051220Z 36007KT 19/17 A3003 RMK A01 T01870170  RH  095%=      5-min Rain = 0
KTIS 051225Z 34007KT 19/17 A3003 RMK A01 T01870170  RH  094%=      5-min Rain = 0
KTIS 051230Z 33007KT 19/17 A3003 RMK A01 T01870169  RH  094%=      5-min Rain = 0
KTIS 051235Z 34006KT 19/17 A3004 RMK A01 T01890172  RH  094%=      5-min Rain = 0
KTIS 051240Z 00007KT 19/17 A3004 RMK A01 T01920173  RH  094%=      5-min Rain = 0
KTIS 051245Z 01006KT 19/17 A3003 RMK A01 T01940173  RH  092%=      5-min Rain = 0
KTIS 051250Z 02007KT 20/17 A3003 RMK A01 T01960173  RH  091%=      5-min Rain = 0
KTIS 051255Z 01006KT 20/17 A3003 RMK A01 T01990172  RH  089%=      5-min Rain = 0
KTIS 051300Z 00006KT 20/17 A3004 RMK A01 T02030172  RH  086%=      5-min Rain = 0
KTIS 051305Z 00006KT 21/17 A3004 RMK A01 T02060171  RH  084%=      5-min Rain = 0
KTIS 051310Z 01005KT 21/17 A3005 RMK A01 T02070169  RH  083%=      5-min Rain = 0
KTIS 051315Z 03005KT 21/17 A3005 RMK A01 T02090170  RH  082%=      5-min Rain = 0
KTIS 051320Z 03006KT 21/17 A3005 RMK A01 T02080168  RH  082%=      5-min Rain = 0
KTIS 051325Z 03005KT 21/17 A3005 RMK A01 T02070169  RH  083%=      5-min Rain = 0
KTIS 051330Z 05006KT 21/17 A3005 RMK A01 T02060170  RH  084%=      5-min Rain = 0
KTIS 051335Z 05006KT 21/17 A3006 RMK A01 T02050171  RH  085%=      5-min Rain = 0
KTIS 051340Z 06006KT 20/17 A3006 RMK A01 T02040173  RH  087%=      5-min Rain = 0
KTIS 051345Z 06006KT 20/18 A3006 RMK A01 T02040175  RH  088%=      5-min Rain = 0
KTIS 051350Z 06006KT 20/18 A3006 RMK A01 T02040177  RH  089%=      5-min Rain = 0
KTIS 051355Z 06006KT 20/18 A3006 RMK A01 T02040176  RH  089%=      5-min Rain = 0
KTIS 051400Z 06005KT 20/18 A3006 RMK A01 T02040176  RH  088%=      5-min Rain = 0
KTIS 051405Z 06007KT 21/18 A3006 RMK A01 T02050177  RH  088%=      5-min Rain = 0
KTIS 051410Z 07007KT 21/18 A3007 RMK A01 T02050177  RH  088%=      5-min Rain = 0
KTIS 051415Z 06006KT 21/18 A3007 RMK A01 T02050177  RH  088%=      5-min Rain = 0
KTIS 051420Z 05005KT 21/18 A3007 RMK A01 T02070178  RH  088%=      5-min Rain = 0
KTIS 051425Z 06005KT 21/18 A3007 RMK A01 T02090177  RH  087%=      5-min Rain = 0
KTIS 051430Z 07002KT 21/18 A3008 RMK A01 T02100177  RH  085%=      5-min Rain = 0
KTIS 051435Z 05003KT 21/18 A3008 RMK A01 T02110176  RH  085%=      5-min Rain = 0
KTIS 051440Z 05004KT 21/18 A3008 RMK A01 T02120176  RH  084%=      5-min Rain = 0
KTIS 051445Z 04005KT 21/18 A3008 RMK A01 T02140175  RH  083%=      5-min Rain = 0
KTIS 051450Z 06006KT 22/18 A3009 RMK A01 T02170179  RH  083%=      5-min Rain = 0
KTIS 051455Z 07010KT 22/18 A3009 RMK A01 T02170180  RH  084%=      5-min Rain = 0
KTIS 051500Z 07011KT 22/18 A3009 RMK A01 T02160178  RH  083%=      5-min Rain = 0
KTIS 051505Z 06009KT 22/18 A3009 RMK A01 T02170179  RH  084%=      5-min Rain = 0
KTIS 051510Z 06010KT 22/18 A3009 RMK A01 T02150180  RH  085%=      5-min Rain = 0
KTIS 051515Z 07012KT 21/18 A3009 RMK A01 T02140177  RH  084%=      5-min Rain = 0
KTIS 051520Z 07012KT 21/17 A3009 RMK A01 T02100174  RH  084%=      5-min Rain = 0
KTIS 051525Z 07011KT 21/17 A3009 RMK A01 T02090174  RH  085%=      5-min Rain = 0
KTIS 051530Z 07010KT 21/17 A3009 RMK A01 T02090173  RH  084%=      5-min Rain = 0
KTIS 051535Z 06010KT 21/18 A301 RMK A01 T02110175  RH  084%=      5-min Rain = 0
KTIS 051540Z 07009KT 22/18 A3009 RMK A01 T02170178  RH  083%=      5-min Rain = 0
KTIS 051545Z 07009KT 22/18 A3009 RMK A01 T02170177  RH  082%=      5-min Rain = 0
KTIS 051550Z 07010KT 22/18 A301 RMK A01 T02150176  RH  082%=      5-min Rain = 0
KTIS 051555Z 05009KT 22/17 A301 RMK A01 T02150174  RH  082%=      5-min Rain = 0
KTIS 051600Z 06009KT 22/18 A301 RMK A01 T02210178  RH  081%=      5-min Rain = 0
KTIS 051605Z 05010KT 22/18 A301 RMK A01 T02210176  RH  080%=      5-min Rain = 0
KTIS 051610Z 05008KT 22/18 A301 RMK A01 T02210176  RH  080%=      5-min Rain = 0
KTIS 051615Z 04008KT 22/18 A301 RMK A01 T02230177  RH  079%=      5-min Rain = 0
KTIS 051620Z 04009KT 22/18 A301 RMK A01 T02230177  RH  080%=      5-min Rain = 0
KTIS 051625Z 05009KT 22/18 A301 RMK A01 T02210177  RH  080%=      5-min Rain = 0
KTIS 051630Z 04007KT 22/18 A301 RMK A01 T02200176  RH  080%=      5-min Rain = 0
KTIS 051635Z 05007KT 22/18 A301 RMK A01 T02200176  RH  080%=      5-min Rain = 0
KTIS 051640Z 07006KT 22/18 A301 RMK A01 T02190176  RH  080%=      5-min Rain = 0
KTIS 051645Z 04007KT 22/18 A301 RMK A01 T02210178  RH  081%=      5-min Rain = 0
KTIS 051650Z 05007KT 22/18 A301 RMK A01 T02240178  RH  080%=      5-min Rain = 0
KTIS 051655Z 05007KT 23/18 A301 RMK A01 T02300181  RH  078%=      5-min Rain = 0
KTIS 051700Z 04007KT 24/18 A301 RMK A01 T02360181  RH  075%=      5-min Rain = 0
KTIS 051705Z 04008G13KT 24/18 A301 RMK A01 T02440183  RH  073%=      5-min Rain = 0
KTIS 051710Z 04008KT 24/18 A3009 RMK A01 T02440180  RH  071%=      5-min Rain = 0
KTIS 051715Z 05008KT 24/18 A3009 RMK A01 T02430175  RH  070%=      5-min Rain = 0
KTIS 051720Z 06008KT 24/17 A3009 RMK A01 T02430174  RH  069%=      5-min Rain = 0
KTIS 051725Z 05008KT 24/17 A301 RMK A01 T02430173  RH  068%=      5-min Rain = 0
KTIS 051730Z 04008KT 25/17 A3009 RMK A01 T02470168  RH  064%=      5-min Rain = 0
KTIS 051735Z 04008KT 25/17 A3009 RMK A01 T02460169  RH  065%=      5-min Rain = 0
KTIS 051740Z 04008KT 25/17 A3009 RMK A01 T02480169  RH  064%=      5-min Rain = 0
KTIS 051745Z 03008KT 25/17 A3009 RMK A01 T02480167  RH  064%=      5-min Rain = 0
KTIS 051750Z 04007KT 25/17 A3009 RMK A01 T02530168  RH  062%=      5-min Rain = 0
KTIS 051755Z 06007KT 25/16 A3008 RMK A01 T02500164  RH  062%=      5-min Rain = 0
KTIS 051800Z 06006G11KT 25/17 A3008 RMK A01 T02520165  RH  061%=      5-min Rain = 0
KTIS 051805Z 07005KT 25/16 A3008 RMK A01 T02520162  RH  060%=      5-min Rain = 0
KTIS 051810Z 07006KT 25/16 A3008 RMK A01 T02520161  RH  060%=      5-min Rain = 0
KTIS 051815Z 06007KT 26/16 A3008 RMK A01 T02550163  RH  060%=      5-min Rain = 0
KTIS 051820Z 04007KT 26/17 A3008 RMK A01 T02590166  RH  059%=      5-min Rain = 0
KTIS 051825Z 06007KT 26/17 A3007 RMK A01 T02590166  RH  059%=      5-min Rain = 0
KTIS 051830Z 05008KT 26/16 A3007 RMK A01 T02610163  RH  058%=      5-min Rain = 0
KTIS 051835Z 06006KT 26/16 A3007 RMK A01 T02600163  RH  058%=      5-min Rain = 0
KTIS 051840Z 06005KT 26/16 A3007 RMK A01 T02630159  RH  055%=      5-min Rain = 0
KTIS 051845Z 06006KT 26/16 A3007 RMK A01 T02620161  RH  056%=      5-min Rain = 0
KTIS 051850Z 05006KT 27/16 A3007 RMK A01 T02650164  RH  056%=      5-min Rain = 0
KTIS 051855Z 07006G11KT 26/16 A3007 RMK A01 T02630163  RH  057%=      5-min Rain = 0
KTIS 051900Z 06007KT 27/16 A3006 RMK A01 T02680164  RH  056%=      5-min Rain = 0
KTIS 051905Z 05005G11KT 27/16 A3006 RMK A01 T02680159  RH  054%=      5-min Rain = 0
KTIS 051910Z 09007KT 27/16 A3006 RMK A01 T02680162  RH  055%=      5-min Rain = 0
KTIS 051915Z 08004KT 27/16 A3006 RMK A01 T02700158  RH  053%=      5-min Rain = 0
KTIS 051920Z 06005G10KT 27/16 A3006 RMK A01 T02720161  RH  053%=      5-min Rain = 0
KTIS 051925Z 08003KT 27/15 A3005 RMK A01 T02700154  RH  051%=      5-min Rain = 0
KTIS 051930Z 05004G9KT 27/16 A3005 RMK A01 T02730157  RH  051%=      5-min Rain = 0
KTIS 051935Z 06005KT 27/16 A3005 RMK A01 T02740162  RH  053%=      5-min Rain = 0
KTIS 051940Z 04005KT 27/16 A3005 RMK A01 T02740161  RH  052%=      5-min Rain = 0
KTIS 051945Z 06005G12KT 27/16 A3005 RMK A01 T02720160  RH  053%=      5-min Rain = 0
KTIS 051950Z 09004KT 28/16 A3005 RMK A01 T02780159  RH  051%=      5-min Rain = 0
KTIS 051955Z 09004KT 28/16 A3004 RMK A01 T02770160  RH  051%=      5-min Rain = 0
KTIS 052000Z 04006G13KT 28/16 A3004 RMK A01 T02820160  RH  050%=      5-min Rain = 0
KTIS 052005Z 04003KT 28/16 A3004 RMK A01 T02780155  RH  049%=      5-min Rain = 0
KTIS 052010Z 02006KT 28/16 A3003 RMK A01 T02840156  RH  048%=      5-min Rain = 0
KTIS 052015Z 06005KT 28/16 A3003 RMK A01 T02820157  RH  049%=      5-min Rain = 0
KTIS 052020Z 01004KT 29/16 A3003 RMK A01 T02850156  RH  048%=      5-min Rain = 0
KTIS 052025Z 05005G11KT 29/16 A3003 RMK A01 T02870156  RH  047%=      5-min Rain = 0
KTIS 052030Z 05006KT 29/16 A3003 RMK A01 T02880158  RH  048%=      5-min Rain = 0
KTIS 052035Z 08006KT 29/16 A3003 RMK A01 T02910161  RH  048%=      5-min Rain = 0
KTIS 052040Z 08005KT 29/16 A3002 RMK A01 T02870155  RH  047%=      5-min Rain = 0
KTIS 052045Z 05001KT 29/15 A3002 RMK A01 T02870152  RH  046%=      5-min Rain = 0
KTIS 052050Z 04003KT 29/16 A3002 RMK A01 T02910155  RH  046%=      5-min Rain = 0
KTIS 052055Z 01004G9KT 29/15 A3002 RMK A01 T02880152  RH  045%=      5-min Rain = 0
KTIS 052100Z 03004G9KT 29/16 A3002 RMK A01 T02910156  RH  046%=      5-min Rain = 0
KTIS 052105Z 08003G8KT 29/16 A3002 RMK A01 T02910157  RH  046%=      5-min Rain = 0
KTIS 052110Z 05005KT 29/16 A3002 RMK A01 T02900156  RH  046%=      5-min Rain = 0
KTIS 052115Z 03002KT 29/15 A3002 RMK A01 T02860152  RH  046%=      5-min Rain = 0
KTIS 052120Z 08000KT 29/15 A3002 RMK A01 T02930154  RH  045%=      5-min Rain = 0
KTIS 052125Z 10003KT 30/16 A3002 RMK A01 T02970155  RH  044%=      5-min Rain = 0
KTIS 052130Z 06005KT 30/15 A3002 RMK A01 T02950153  RH  044%=      5-min Rain = 0
KTIS 052135Z 11003KT 29/15 A3002 RMK A01 T02940153  RH  044%=      5-min Rain = 0
KTIS 052140Z 13004KT 30/15 A3002 RMK A01 T02950152  RH  044%=      5-min Rain = 0
KTIS 052145Z 08002KT 30/15 A3001 RMK A01 T02960151  RH  043%=      5-min Rain = 0
KTIS 052150Z 15002KT 30/15 A3001 RMK A01 T03000151  RH  042%=      5-min Rain = 0
KTIS 052155Z 15003KT 30/15 A3001 RMK A01 T03000150  RH  042%=      5-min Rain = 0
KTIS 052200Z 12003KT 30/15 A30 RMK A01 T02980148  RH  042%=      5-min Rain = 0
KTIS 052205Z 11004KT 30/15 A30 RMK A01 T02980152  RH  043%=      5-min Rain = 0
KTIS 052210Z 06005KT 29/15 A30 RMK A01 T02930147  RH  043%=      5-min Rain = 0
KTIS 052215Z 08003KT 29/15 A30 RMK A01 T02910147  RH  044%=      5-min Rain = 0
KTIS 052220Z 31001KT 30/15 A2999 RMK A01 T02980153  RH  043%=      5-min Rain = 0
KTIS 052225Z 22005KT 30/15 A2999 RMK A01 T03000153  RH  043%=      5-min Rain = 0
KTIS 052230Z 14003KT 30/15 A2999 RMK A01 T02950153  RH  044%=      5-min Rain = 0
KTIS 052235Z 14002KT 29/15 A2999 RMK A01 T02920149  RH  044%=      5-min Rain = 0
KTIS 052240Z 21003KT 29/15 A2999 RMK A01 T02910148  RH  044%=      5-min Rain = 0
KTIS 052245Z 18004KT 29/15 A2998 RMK A01 T02920148  RH  044%=      5-min Rain = 0
KTIS 052250Z 17004KT 30/15 A2998 RMK A01 T02980149  RH  042%=      5-min Rain = 0
KTIS 052255Z 18004KT 30/15 A2998 RMK A01 T03030150  RH  041%=      5-min Rain = 0
KTIS 052300Z 23003KT 30/15 A2998 RMK A01 T03000147  RH  041%=      5-min Rain = 0
KTIS 052305Z 24002KT 30/15 A2998 RMK A01 T03020147  RH  041%=      5-min Rain = 0
KTIS 052310Z 24003KT 30/15 A2998 RMK A01 T03030148  RH  041%=      5-min Rain = 0
KTIS 052315Z 28004KT 31/15 A2998 RMK A01 T03050150  RH  041%=      5-min Rain = 0
KTIS 052320Z 28003KT 31/15 A2998 RMK A01 T03050150  RH  041%=      5-min Rain = 0
KTIS 052325Z 29003KT 30/15 A2997 RMK A01 T03040147  RH  040%=      5-min Rain = 0
KTIS 052330Z 22003KT 30/15 A2997 RMK A01 T03030147  RH  040%=      5-min Rain = 0
KTIS 052335Z 23002KT 30/15 A2997 RMK A01 T03030148  RH  041%=      5-min Rain = 0
KTIS 052340Z 25001KT 30/15 A2997 RMK A01 T03040147  RH  040%=      5-min Rain = 0
KTIS 052345Z 20001KT 31/15 A2997 RMK A01 T03060146  RH  040%=      5-min Rain = 0
KTIS 052350Z 18002KT 30/15 A2997 RMK A01 T03040147  RH  040%=      5-min Rain = 0
KTIS 052355Z 10001KT 31/15 A2997 RMK A01 T03050146  RH  040%=      5-min Rain = 0
KTIS 060000Z 09001KT 31/15 A2997 RMK A01 T03050148  RH  040%=      5-min Rain = 0
KTIS 060005Z 09001KT 31/15 A2997 RMK A01 T03070148  RH  040%=      5-min Rain = 0
KTIS 060010Z 04000KT 31/15 A2997 RMK A01 T03110149  RH  039%=      5-min Rain = 0
KTIS 060015Z 03002KT 31/15 A2997 RMK A01 T03090147  RH  039%=      5-min Rain = 0
KTIS 060020Z 02002KT 31/15 A2997 RMK A01 T03050148  RH  040%=      5-min Rain = 0
KTIS 060025Z 08003KT 30/15 A2997 RMK A01 T03020147  RH  041%=      5-min Rain = 0
KTIS 060030Z 06003KT 30/15 A2997 RMK A01 T03030151  RH  042%=      5-min Rain = 0
KTIS 060035Z 05002KT 30/15 A2997 RMK A01 T03020150  RH  041%=      5-min Rain = 0
KTIS 060040Z 13002KT 30/15 A2997 RMK A01 T03030149  RH  041%=      5-min Rain = 0
KTIS 060045Z 16002KT 30/15 A2997 RMK A01 T03020146  RH  041%=      5-min Rain = 0
KTIS 060050Z 11003KT 30/15 A2997 RMK A01 T03020149  RH  041%=      5-min Rain = 0
KTIS 060055Z 10003KT 30/15 A2997 RMK A01 T02990150  RH  042%=      5-min Rain = 0
KTIS 060100Z 12001KT 30/15 A2998 RMK A01 T02990149  RH  042%=      5-min Rain = 0
KTIS 060105Z 09002KT 30/15 A2998 RMK A01 T02970149  RH  042%=      5-min Rain = 0
KTIS 060110Z 07002KT 29/15 A2998 RMK A01 T02940149  RH  043%=      5-min Rain = 0
KTIS 060115Z 04001KT 29/15 A2998 RMK A01 T02930147  RH  043%=      5-min Rain = 0
KTIS 060120Z 01000KT 30/15 A2998 RMK A01 T02960146  RH  042%=      5-min Rain = 0
KTIS 060125Z 02002KT 30/15 A2998 RMK A01 T02970152  RH  043%=      5-min Rain = 0
KTIS 060130Z 04005KT 29/16 A2998 RMK A01 T02920159  RH  047%=      5-min Rain = 0
KTIS 060135Z 04006KT 29/16 A2998 RMK A01 T02860162  RH  049%=      5-min Rain = 0
KTIS 060140Z 04006KT 28/17 A2998 RMK A01 T02830165  RH  051%=      5-min Rain = 0
KTIS 060145Z 04006KT 28/17 A2998 RMK A01 T02800170  RH  054%=      5-min Rain = 0
KTIS 060150Z 03006KT 28/17 A2998 RMK A01 T02770171  RH  055%=      5-min Rain = 0
KTIS 060155Z 03006KT 28/17 A2998 RMK A01 T02760171  RH  056%=      5-min Rain = 0
KTIS 060200Z 02006KT 27/17 A2998 RMK A01 T02740173  RH  057%=      5-min Rain = 0
KTIS 060205Z 02005KT 27/17 A2998 RMK A01 T02720174  RH  058%=      5-min Rain = 0
KTIS 060210Z 03007KT 27/17 A2998 RMK A01 T02710172  RH  058%=      5-min Rain = 0
KTIS 060215Z 03007KT 27/17 A2998 RMK A01 T02690172  RH  058%=      5-min Rain = 0
KTIS 060220Z 03007KT 27/17 A2999 RMK A01 T02670173  RH  059%=      5-min Rain = 0
KTIS 060225Z 03006KT 27/17 A2999 RMK A01 T02660174  RH  060%=      5-min Rain = 0
KTIS 060230Z 04007KT 26/18 A2998 RMK A01 T02630177  RH  062%=      5-min Rain = 0
KTIS 060235Z 04007KT 26/18 A2999 RMK A01 T02610175  RH  062%=      5-min Rain = 0
KTIS 060240Z 04007KT 26/17 A2999 RMK A01 T02610174  RH  062%=      5-min Rain = 0
KTIS 060245Z 04006KT 26/17 A2999 RMK A01 T02620173  RH  061%=      5-min Rain = 0
KTIS 060250Z 05006KT 26/17 A2999 RMK A01 T02610173  RH  062%=      5-min Rain = 0
KTIS 060255Z 05006KT 26/17 A2999 RMK A01 T02610174  RH  062%=      5-min Rain = 0
KTIS 060300Z 05004KT 26/18 A30 RMK A01 T02600175  RH  063%=      5-min Rain = 0
KTIS 060305Z 05003KT 26/18 A30 RMK A01 T02580177  RH  064%=      5-min Rain = 0
KTIS 060310Z 06002KT 26/18 A30 RMK A01 T02550180  RH  067%=      5-min Rain = 0
KTIS 060315Z 08003KT 25/18 A30 RMK A01 T02520178  RH  067%=      5-min Rain = 0
KTIS 060320Z 08004KT 25/18 A30 RMK A01 T02510179  RH  068%=      5-min Rain = 0
KTIS 060325Z 08005KT 25/18 A30 RMK A01 T02500180  RH  069%=      5-min Rain = 0
KTIS 060330Z 07006KT 25/18 A30 RMK A01 T02510178  RH  068%=      5-min Rain = 0
KTIS 060335Z 07006KT 25/18 A30 RMK A01 T02500177  RH  067%=      5-min Rain = 0
KTIS 060340Z 07006KT 25/18 A30 RMK A01 T02500177  RH  068%=      5-min Rain = 0
KTIS 060345Z 07005KT 25/18 A30 RMK A01 T02480180  RH  069%=      5-min Rain = 0
KTIS 060350Z 08004KT 25/18 A30 RMK A01 T02470182  RH  071%=      5-min Rain = 0
KTIS 060355Z 09003KT 25/18 A3001 RMK A01 T02450183  RH  072%=      5-min Rain = 0
KTIS 060400Z 10004KT 24/18 A3001 RMK A01 T02430183  RH  073%=      5-min Rain = 0
KTIS 060405Z 10002KT 24/18 A3001 RMK A01 T02420184  RH  074%=      5-min Rain = 0
KTIS 060410Z 00003KT 24/19 A3001 RMK A01 T02410185  RH  075%=      5-min Rain = 0
KTIS 060415Z 03004KT 24/18 A3001 RMK A01 T02400183  RH  074%=      5-min Rain = 0
KTIS 060420Z 06007KT 24/18 A3002 RMK A01 T02440180  RH  071%=      5-min Rain = 0
KTIS 060425Z 06008KT 24/18 A3002 RMK A01 T02440180  RH  071%=      5-min Rain = 0
KTIS 060430Z 06007KT 24/18 A3002 RMK A01 T02430182  RH  073%=      5-min Rain = 0
KTIS 060435Z 06010KT 24/18 A3002 RMK A01 T02420183  RH  073%=      5-min Rain = 0
KTIS 060440Z 07010KT 24/19 A3002 RMK A01 T02410185  RH  075%=      5-min Rain = 0
KTIS 060445Z 07011KT 24/19 A3003 RMK A01 T02390185  RH  075%=      5-min Rain = 0
KTIS 060450Z 08010KT 24/18 A3003 RMK A01 T02380184  RH  076%=      5-min Rain = 0
KTIS 060455Z 09009KT 24/19 A3004 RMK A01 T02380185  RH  076%=      5-min Rain = 0

Page generated in 0.0152 seconds.